sensor_id;sensor_type;location;lat;lon;timestamp;pressure;altitude;pressure_sealevel;temperature;humidity
54407;BME280;40313;50.308;30.374;2023-02-28T00:01:08;100710.78;;;-3.48;100.00
54407;BME280;40313;50.308;30.374;2023-02-28T00:03:34;100708.19;;;-3.50;100.00
54407;BME280;40313;50.308;30.374;2023-02-28T00:06:01;100708.25;;;-3.47;100.00
54407;BME280;40313;50.308;30.374;2023-02-28T00:08:27;100710.78;;;-3.48;100.00
54407;BME280;40313;50.308;30.374;2023-02-28T00:10:54;100715.03;;;-3.47;100.00
54407;BME280;40313;50.308;30.374;2023-02-28T00:13:22;100712.41;;;-3.50;100.00
54407;BME280;40313;50.308;30.374;2023-02-28T00:15:58;100712.50;;;-3.47;100.00
54407;BME280;40313;50.308;30.374;2023-02-28T00:18:25;100709.84;;;-3.52;100.00
54407;BME280;40313;50.308;30.374;2023-02-28T00:20:52;100714.13;;;-3.49;100.00
54407;BME280;40313;50.308;30.374;2023-02-28T00:23:18;100725.16;;;-3.50;100.00
54407;BME280;40313;50.308;30.374;2023-02-28T00:25:45;100717.50;;;-3.50;100.00
54407;BME280;40313;50.308;30.374;2023-02-28T00:28:11;100725.16;;;-3.50;100.00
54407;BME280;40313;50.308;30.374;2023-02-28T00:30:39;100721.75;;;-3.51;100.00
54407;BME280;40313;50.308;30.374;2023-02-28T00:33:06;100714.94;;;-3.52;100.00
54407;BME280;40313;50.308;30.374;2023-02-28T00:35:32;100721.75;;;-3.51;100.00
54407;BME280;40313;50.308;30.374;2023-02-28T00:38:00;100719.19;;;-3.52;100.00
54407;BME280;40313;50.308;30.374;2023-02-28T00:40:27;100714.88;;;-3.55;100.00
54407;BME280;40313;50.308;30.374;2023-02-28T00:42:54;100716.59;;;-3.55;100.00
54407;BME280;40313;50.308;30.374;2023-02-28T00:45:20;100717.41;;;-3.56;100.00
54407;BME280;40313;50.308;30.374;2023-02-28T00:47:48;100716.59;;;-3.55;100.00
54407;BME280;40313;50.308;30.374;2023-02-28T00:50:16;100708.06;;;-3.56;100.00
54407;BME280;40313;50.308;30.374;2023-02-28T00:52:42;100712.34;;;-3.55;100.00
54407;BME280;40313;50.308;30.374;2023-02-28T00:55:09;100704.59;;;-3.59;100.00
54407;BME280;40313;50.308;30.374;2023-02-28T00:57:36;100703.75;;;-3.60;100.00
54407;BME280;40313;50.308;30.374;2023-02-28T01:00:02;100704.53;;;-3.64;100.00
54407;BME280;40313;50.308;30.374;2023-02-28T01:02:29;100701.94;;;-3.66;100.00
54407;BME280;40313;50.308;30.374;2023-02-28T01:04:57;100699.28;;;-3.70;100.00
54407;BME280;40313;50.308;30.374;2023-02-28T01:07:24;100703.47;;;-3.75;100.00
54407;BME280;40313;50.308;30.374;2023-02-28T01:09:50;100711.94;;;-3.76;100.00
54407;BME280;40313;50.308;30.374;2023-02-28T01:12:17;100706.69;;;-3.84;100.00
54407;BME280;40313;50.308;30.374;2023-02-28T01:14:43;100714.19;;;-3.90;100.00
54407;BME280;40313;50.308;30.374;2023-02-28T01:17:10;100719.31;;;-3.90;100.00
54407;BME280;40313;50.308;30.374;2023-02-28T01:19:37;100723.63;;;-3.86;100.00
54407;BME280;40313;50.308;30.374;2023-02-28T01:22:06;100719.44;;;-3.84;100.00
54407;BME280;40313;50.308;30.374;2023-02-28T01:24:33;100720.25;;;-3.85;100.00
54407;BME280;40313;50.308;30.374;2023-02-28T01:26:59;100727.16;;;-3.81;100.00
54407;BME280;40313;50.308;30.374;2023-02-28T01:29:26;100724.56;;;-3.83;100.00
54407;BME280;40313;50.308;30.374;2023-02-28T01:31:52;100728.00;;;-3.80;100.00
54407;BME280;40313;50.308;30.374;2023-02-28T01:34:19;100727.09;;;-3.84;100.00
54407;BME280;40313;50.308;30.374;2023-02-28T01:36:45;100733.81;;;-3.86;100.00
54407;BME280;40313;50.308;30.374;2023-02-28T01:39:13;100728.00;;;-3.80;100.00
54407;BME280;40313;50.308;30.374;2023-02-28T01:41:40;100727.16;;;-3.81;100.00
54407;BME280;40313;50.308;30.374;2023-02-28T01:47:11;100728.81;;;-3.82;100.00
54407;BME280;40313;50.308;30.374;2023-02-28T01:49:39;100728.00;;;-3.80;100.00
54407;BME280;40313;50.308;30.374;2023-02-28T01:52:06;100729.75;;;-3.78;100.00
54407;BME280;40313;50.308;30.374;2023-02-28T01:54:34;100730.53;;;-3.80;100.00
54407;BME280;40313;50.308;30.374;2023-02-28T01:57:02;100730.47;;;-3.85;100.00
54407;BME280;40313;50.308;30.374;2023-02-28T01:59:31;100730.50;;;-3.82;100.00
54407;BME280;40313;50.308;30.374;2023-02-28T02:01:58;100739.91;;;-3.81;100.00
54407;BME280;40313;50.308;30.374;2023-02-28T02:04:26;100733.97;;;-3.80;100.00
54407;BME280;40313;50.308;30.374;2023-02-28T02:06:54;100737.28;;;-3.84;100.00
54407;BME280;40313;50.308;30.374;2023-02-28T02:09:21;100740.66;;;-3.85;100.00
54407;BME280;40313;50.308;30.374;2023-02-28T02:11:49;100742.34;;;-3.87;100.00
54407;BME280;40313;50.308;30.374;2023-02-28T02:14:20;100741.47;;;-3.86;100.00
54407;BME280;40313;50.308;30.374;2023-02-28T02:16:53;100748.19;;;-3.91;100.00
54407;BME280;40313;50.308;30.374;2023-02-28T02:19:28;100745.63;;;-3.91;100.00
54407;BME280;40313;50.308;30.374;2023-02-28T02:27:28;100747.22;;;-3.96;100.00
54407;BME280;40313;50.308;30.374;2023-02-28T02:30:13;100749.81;;;-3.95;100.00
54407;BME280;40313;50.308;30.374;2023-02-28T02:35:30;100741.16;;;-4.02;100.00
54407;BME280;40313;50.308;30.374;2023-02-28T02:37:59;100747.94;;;-4.02;100.00
54407;BME280;40313;50.308;30.374;2023-02-28T02:40:30;100757.34;;;-4.00;100.00
54407;BME280;40313;50.308;30.374;2023-02-28T02:43:00;100753.88;;;-4.03;100.00
54407;BME280;40313;50.308;30.374;2023-02-28T02:45:28;100752.25;;;-4.00;100.00
54407;BME280;40313;50.308;30.374;2023-02-28T02:48:00;100753.91;;;-4.02;100.00
54407;BME280;40313;50.308;30.374;2023-02-28T02:50:30;100756.44;;;-4.02;100.00
54407;BME280;40313;50.308;30.374;2023-02-28T02:52:58;100759.88;;;-4.01;100.00
54407;BME280;40313;50.308;30.374;2023-02-28T02:55:26;100767.50;;;-4.03;100.00
54407;BME280;40313;50.308;30.374;2023-02-28T02:57:53;100766.72;;;-4.00;100.00
54407;BME280;40313;50.308;30.374;2023-02-28T03:00:23;100772.59;;;-4.03;100.00
54407;BME280;40313;50.308;30.374;2023-02-28T03:02:51;100768.31;;;-4.04;100.00
54407;BME280;40313;50.308;30.374;2023-02-28T03:05:19;100774.22;;;-4.05;100.00
54407;BME280;40313;50.308;30.374;2023-02-28T03:07:48;100771.66;;;-4.06;100.00
54407;BME280;40313;50.308;30.374;2023-02-28T03:10:28;100778.47;;;-4.05;100.00
54407;BME280;40313;50.308;30.374;2023-02-28T03:12:58;100779.31;;;-4.05;100.00
54407;BME280;40313;50.308;30.374;2023-02-28T03:15:29;100777.63;;;-4.06;100.00
54407;BME280;40313;50.308;30.374;2023-02-28T03:18:01;100780.06;;;-4.10;100.00
54407;BME280;40313;50.308;30.374;2023-02-28T03:20:35;100782.44;;;-4.18;100.00
54407;BME280;40313;50.308;30.374;2023-02-28T03:23:07;100780.75;;;-4.18;100.00
54407;BME280;40313;50.308;30.374;2023-02-28T03:25:45;100785.88;;;-4.16;100.00
54407;BME280;40313;50.308;30.374;2023-02-28T03:28:22;100790.16;;;-4.15;100.00
54407;BME280;40313;50.308;30.374;2023-02-28T03:30:52;100792.69;;;-4.15;100.00
54407;BME280;40313;50.308;30.374;2023-02-28T03:33:23;100785.00;;;-4.18;100.00
54407;BME280;40313;50.308;30.374;2023-02-28T03:35:53;100785.88;;;-4.16;100.00
54407;BME280;40313;50.308;30.374;2023-02-28T03:38:26;100794.44;;;-4.14;100.00
54407;BME280;40313;50.308;30.374;2023-02-28T03:40:58;100796.94;;;-4.15;100.00
54407;BME280;40313;50.308;30.374;2023-02-28T03:43:29;100799.47;;;-4.17;100.00
54407;BME280;40313;50.308;30.374;2023-02-28T03:45:59;100801.09;;;-4.19;100.00
54407;BME280;40313;50.308;30.374;2023-02-28T03:48:32;100806.97;;;-4.22;100.00
54407;BME280;40313;50.308;30.374;2023-02-28T03:51:02;100808.75;;;-4.19;100.00
54407;BME280;40313;50.308;30.374;2023-02-28T03:53:30;100802.75;;;-4.21;100.00
54407;BME280;40313;50.308;30.374;2023-02-28T03:55:59;100801.91;;;-4.20;100.00
54407;BME280;40313;50.308;30.374;2023-02-28T03:58:28;100806.13;;;-4.22;100.00
54407;BME280;40313;50.308;30.374;2023-02-28T04:01:03;100795.91;;;-4.24;100.00
54407;BME280;40313;50.308;30.374;2023-02-28T04:03:33;100797.50;;;-4.27;100.00
54407;BME280;40313;50.308;30.374;2023-02-28T04:06:00;100800.94;;;-4.27;100.00
54407;BME280;40313;50.308;30.374;2023-02-28T04:08:27;100805.13;;;-4.29;100.00
54407;BME280;40313;50.308;30.374;2023-02-28T04:11:00;100802.56;;;-4.29;100.00
54407;BME280;40313;50.308;30.374;2023-02-28T04:13:28;100807.63;;;-4.30;100.00
54407;BME280;40313;50.308;30.374;2023-02-28T04:15:54;100801.66;;;-4.32;100.00
54407;BME280;40313;50.308;30.374;2023-02-28T04:18:21;100806.72;;;-4.34;100.00
54407;BME280;40313;50.308;30.374;2023-02-28T04:20:47;100803.31;;;-4.33;100.00
54407;BME280;40313;50.308;30.374;2023-02-28T04:23:14;100791.47;;;-4.32;100.00
54407;BME280;40313;50.308;30.374;2023-02-28T04:25:40;100800.78;;;-4.33;100.00
54407;BME280;40313;50.308;30.374;2023-02-28T04:28:08;100798.19;;;-4.35;100.00
54407;BME280;40313;50.308;30.374;2023-02-28T04:30:35;100799.84;;;-4.37;100.00
54407;BME280;40313;50.308;30.374;2023-02-28T04:33:01;100804.97;;;-4.35;100.00
54407;BME280;40313;50.308;30.374;2023-02-28T04:35:28;100806.59;;;-4.39;100.00
54407;BME280;40313;50.308;30.374;2023-02-28T04:37:54;100809.19;;;-4.37;100.00
54407;BME280;40313;50.308;30.374;2023-02-28T04:40:21;100814.31;;;-4.36;100.00
54407;BME280;40313;50.308;30.374;2023-02-28T04:42:47;100809.13;;;-4.39;100.00
54407;BME280;40313;50.308;30.374;2023-02-28T04:45:15;100814.22;;;-4.39;100.00
54407;BME280;40313;50.308;30.374;2023-02-28T04:47:42;100810.88;;;-4.38;100.00
54407;BME280;40313;50.308;30.374;2023-02-28T04:50:09;100814.22;;;-4.39;100.00
54407;BME280;40313;50.308;30.374;2023-02-28T04:52:35;100811.66;;;-4.40;100.00
54407;BME280;40313;50.308;30.374;2023-02-28T04:55:01;100820.16;;;-4.40;100.00
54407;BME280;40313;50.308;30.374;2023-02-28T04:57:28;100812.53;;;-4.40;100.00
54407;BME280;40313;50.308;30.374;2023-02-28T04:59:55;100826.00;;;-4.44;100.00
54407;BME280;40313;50.308;30.374;2023-02-28T05:02:22;100823.44;;;-4.45;100.00
54407;BME280;40313;50.308;30.374;2023-02-28T05:04:49;100821.75;;;-4.43;100.00
54407;BME280;40313;50.308;30.374;2023-02-28T05:07:15;100820.00;;;-4.46;100.00
54407;BME280;40313;50.308;30.374;2023-02-28T05:09:41;100825.00;;;-4.51;100.00
54407;BME280;40313;50.308;30.374;2023-02-28T05:12:08;100825.06;;;-4.47;100.00
54407;BME280;40313;50.308;30.374;2023-02-28T05:14:34;100829.31;;;-4.48;100.00
54407;BME280;40313;50.308;30.374;2023-02-28T05:17:01;100822.53;;;-4.46;100.00
54407;BME280;40313;50.308;30.374;2023-02-28T05:19:29;100830.97;;;-4.50;100.00
54407;BME280;40313;50.308;30.374;2023-02-28T05:21:55;100825.16;;;-4.44;100.00
54407;BME280;40313;50.308;30.374;2023-02-28T05:24:22;100830.31;;;-4.41;100.00
54407;BME280;40313;50.308;30.374;2023-02-28T05:26:48;100836.34;;;-4.38;100.00
54407;BME280;40313;50.308;30.374;2023-02-28T05:29:15;100832.94;;;-4.38;100.00
54407;BME280;40313;50.308;30.374;2023-02-28T05:31:42;100836.34;;;-4.38;100.00
54407;BME280;40313;50.308;30.374;2023-02-28T05:34:08;100832.22;;;-4.32;100.00
54407;BME280;40313;50.308;30.374;2023-02-28T05:36:37;100833.22;;;-4.26;100.00
54407;BME280;40313;50.308;30.374;2023-02-28T05:39:04;100836.69;;;-4.22;100.00
54407;BME280;40313;50.308;30.374;2023-02-28T05:41:31;100841.88;;;-4.19;100.00
54407;BME280;40313;50.308;30.374;2023-02-28T05:43:57;100830.13;;;-4.12;100.00
54407;BME280;40313;50.308;30.374;2023-02-28T05:46:24;100833.59;;;-4.09;100.00
54407;BME280;40313;50.308;30.374;2023-02-28T05:48:51;100833.75;;;-4.03;100.00
54407;BME280;40313;50.308;30.374;2023-02-28T05:51:17;100845.81;;;-3.95;100.00
54407;BME280;40313;50.308;30.374;2023-02-28T05:53:45;100846.75;;;-3.90;100.00
54407;BME280;40313;50.308;30.374;2023-02-28T05:56:13;100853.56;;;-3.91;100.00
54407;BME280;40313;50.308;30.374;2023-02-28T05:58:39;100852.88;;;-3.82;100.00
54407;BME280;40313;50.308;30.374;2023-02-28T06:01:19;100857.25;;;-3.76;100.00
54407;BME280;40313;50.308;30.374;2023-02-28T06:03:45;100849.88;;;-3.64;100.00
54407;BME280;40313;50.308;30.374;2023-02-28T06:06:12;100849.91;;;-3.62;100.00
54407;BME280;40313;50.308;30.374;2023-02-28T06:08:38;100848.47;;;-3.51;100.00
54407;BME280;40313;50.308;30.374;2023-02-28T06:11:06;100853.59;;;-3.50;100.00
54407;BME280;40313;50.308;30.374;2023-02-28T06:13:32;100857.00;;;-3.49;100.00
54407;BME280;40313;50.308;30.374;2023-02-28T06:16:00;100859.47;;;-3.52;100.00
54407;BME280;40313;50.308;30.374;2023-02-28T06:18:26;100862.03;;;-3.52;100.00
54407;BME280;40313;50.308;30.374;2023-02-28T06:20:53;100864.63;;;-3.51;100.00
54407;BME280;40313;50.308;30.374;2023-02-28T06:23:20;100860.34;;;-3.50;100.00
54407;BME280;40313;50.308;30.374;2023-02-28T06:25:47;100862.91;;;-3.50;100.00
54407;BME280;40313;50.308;30.374;2023-02-28T06:28:15;100864.50;;;-3.57;100.00
54407;BME280;40313;50.308;30.374;2023-02-28T06:30:42;100850.09;;;-3.53;100.00
54407;BME280;40313;50.308;30.374;2023-02-28T06:33:08;100856.88;;;-3.55;100.00
54407;BME280;40313;50.308;30.374;2023-02-28T06:35:35;100854.38;;;-3.52;100.00
54407;BME280;40313;50.308;30.374;2023-02-28T06:38:01;100850.09;;;-3.53;100.00
54407;BME280;40313;50.308;30.374;2023-02-28T06:40:28;100844.13;;;-3.55;100.00
54407;BME280;40313;50.308;30.374;2023-02-28T06:42:56;100847.38;;;-3.62;100.00
54407;BME280;40313;50.308;30.374;2023-02-28T06:45:24;100855.03;;;-3.62;100.00
54407;BME280;40313;50.308;30.374;2023-02-28T06:47:51;100856.50;;;-3.72;100.00
54407;BME280;40313;50.308;30.374;2023-02-28T06:50:17;100852.44;;;-3.64;100.00
54407;BME280;40313;50.308;30.374;2023-02-28T06:52:45;100846.47;;;-3.65;100.00
54407;BME280;40313;50.308;30.374;2023-02-28T06:55:11;100848.03;;;-3.71;100.00
54407;BME280;40313;50.308;30.374;2023-02-28T06:57:38;100848.13;;;-3.67;100.00
54407;BME280;40313;50.308;30.374;2023-02-28T07:00:05;100846.28;;;-3.74;100.00
54407;BME280;40313;50.308;30.374;2023-02-28T07:02:34;100848.91;;;-3.69;100.00
54407;BME280;40313;50.308;30.374;2023-02-28T07:05:00;100847.22;;;-3.69;100.00
54407;BME280;40313;50.308;30.374;2023-02-28T07:07:27;100849.75;;;-3.69;100.00
54407;BME280;40313;50.308;30.374;2023-02-28T07:09:53;100845.66;;;-3.62;100.00
54407;BME280;40313;50.308;30.374;2023-02-28T07:12:19;100850.09;;;-3.53;100.00
54407;BME280;40313;50.308;30.374;2023-02-28T07:14:46;100846.69;;;-3.54;100.00
54407;BME280;40313;50.308;30.374;2023-02-28T07:17:12;100843.38;;;-3.50;100.00
54407;BME280;40313;50.308;30.374;2023-02-28T07:19:40;100840.88;;;-3.48;100.00
54407;BME280;40313;50.308;30.374;2023-02-28T07:22:06;100848.41;;;-3.54;100.00
54407;BME280;40313;50.308;30.374;2023-02-28T07:24:33;100844.25;;;-3.48;100.00
54407;BME280;40313;50.308;30.374;2023-02-28T07:26:59;100846.16;;;-3.37;100.00
54407;BME280;40313;50.308;30.374;2023-02-28T07:29:26;100840.47;;;-3.25;100.00
54407;BME280;40313;50.308;30.374;2023-02-28T07:31:52;100834.94;;;-3.03;100.00
54407;BME280;40313;50.308;30.374;2023-02-28T07:34:19;100839.13;;;-3.05;100.00
54407;BME280;40313;50.308;30.374;2023-02-28T07:36:46;100844.47;;;-2.92;100.00
54407;BME280;40313;50.308;30.374;2023-02-28T07:39:13;100849.75;;;-2.82;100.00
54407;BME280;40313;50.308;30.374;2023-02-28T07:41:39;100850.84;;;-2.69;100.00
54407;BME280;40313;50.308;30.374;2023-02-28T07:44:08;100855.22;;;-2.62;100.00
54407;BME280;40313;50.308;30.374;2023-02-28T07:46:35;100853.19;;;-2.81;100.00
54407;BME280;40313;50.308;30.374;2023-02-28T07:49:01;100853.75;;;-2.96;100.00
54407;BME280;40313;50.308;30.374;2023-02-28T07:51:28;100848.09;;;-2.81;100.00
54407;BME280;40313;50.308;30.374;2023-02-28T07:53:55;100853.47;;;-2.66;100.00
54407;BME280;40313;50.308;30.374;2023-02-28T07:56:22;100852.19;;;-2.39;100.00
54407;BME280;40313;50.308;30.374;2023-02-28T07:58:48;100848.16;;;-2.24;100.00
54407;BME280;40313;50.308;30.374;2023-02-28T08:01:14;100846.28;;;-2.36;100.00
54407;BME280;40313;50.308;30.374;2023-02-28T08:03:41;100851.63;;;-2.21;100.00
54407;BME280;40313;50.308;30.374;2023-02-28T08:06:07;100851.09;;;-2.01;100.00
54407;BME280;40313;50.308;30.374;2023-02-28T08:08:34;100843.03;;;-1.66;100.00
54407;BME280;40313;50.308;30.374;2023-02-28T08:11:02;100841.69;;;-1.38;100.00
54407;BME280;40313;50.308;30.374;2023-02-28T08:13:29;100836.59;;;-1.35;100.00
54407;BME280;40313;50.308;30.374;2023-02-28T08:15:55;100850.00;;;-1.54;100.00
54407;BME280;40313;50.308;30.374;2023-02-28T08:18:22;100844.97;;;-1.48;100.00
54407;BME280;40313;50.308;30.374;2023-02-28T08:20:48;100839.16;;;-1.33;100.00
54407;BME280;40313;50.308;30.374;2023-02-28T08:23:15;100845.31;;;-1.17;100.00
54407;BME280;40313;50.308;30.374;2023-02-28T08:25:41;100834.00;;;-1.40;100.00
54407;BME280;40313;50.308;30.374;2023-02-28T08:28:09;100845.09;;;-1.37;100.00
54407;BME280;40313;50.308;30.374;2023-02-28T08:30:35;100842.97;;;-0.97;100.00
54407;BME280;40313;50.308;30.374;2023-02-28T08:33:01;100841.47;;;-0.78;100.00
54407;BME280;40313;50.308;30.374;2023-02-28T08:35:28;100847.41;;;-0.81;100.00
54407;BME280;40313;50.308;30.374;2023-02-28T08:37:54;100848.88;;;-1.03;100.00
54407;BME280;40313;50.308;30.374;2023-02-28T08:40:20;100845.59;;;-0.94;100.00
54407;BME280;40313;50.308;30.374;2023-02-28T08:42:47;100849.03;;;-0.89;100.00
54407;BME280;40313;50.308;30.374;2023-02-28T08:45:15;100848.34;;;-0.73;100.00
54407;BME280;40313;50.308;30.374;2023-02-28T08:47:42;100838.91;;;-0.78;100.00
54407;BME280;40313;50.308;30.374;2023-02-28T08:50:09;100835.56;;;-0.71;100.00
54407;BME280;40313;50.308;30.374;2023-02-28T08:52:35;100835.75;;;-0.49;100.00
54407;BME280;40313;50.308;30.374;2023-02-28T08:55:02;100836.03;;;-0.14;100.00
54407;BME280;40313;50.308;30.374;2023-02-28T08:57:28;100835.34;;;0.13;100.00
54407;BME280;40313;50.308;30.374;2023-02-28T08:59:54;100840.34;;;-0.07;100.00
54407;BME280;40313;50.308;30.374;2023-02-28T09:02:22;100833.38;;;-0.23;100.00
54407;BME280;40313;50.308;30.374;2023-02-28T09:04:49;100832.41;;;-0.38;100.00
54407;BME280;40313;50.308;30.374;2023-02-28T09:07:15;100828.13;;;-0.40;100.00
54407;BME280;40313;50.308;30.374;2023-02-28T09:09:41;100829.88;;;-0.33;100.00
54407;BME280;40313;50.308;30.374;2023-02-28T09:12:18;100828.22;;;-0.25;100.00
54407;BME280;40313;50.308;30.374;2023-02-28T09:14:45;100831.63;;;-0.29;100.00
54407;BME280;40313;50.308;30.374;2023-02-28T09:17:11;100835.72;;;-0.53;100.00
54407;BME280;40313;50.308;30.374;2023-02-28T09:19:39;100832.22;;;-0.64;100.00
54407;BME280;40313;50.308;30.374;2023-02-28T09:22:05;100823.63;;;-0.66;100.00
54407;BME280;40313;50.308;30.374;2023-02-28T09:24:31;100823.75;;;-0.54;100.00
54407;BME280;40313;50.308;30.374;2023-02-28T09:26:58;100815.16;;;-0.59;100.00
54407;BME280;40313;50.308;30.374;2023-02-28T09:29:24;100817.63;;;-0.71;100.00
54407;BME280;40313;50.308;30.374;2023-02-28T09:31:50;100820.06;;;-0.83;100.00
54407;BME280;40313;50.308;30.374;2023-02-28T09:34:17;100809.81;;;-0.83;100.00
54407;BME280;40313;50.308;30.374;2023-02-28T09:36:44;100818.31;;;-0.86;100.00
54407;BME280;40313;50.308;30.374;2023-02-28T09:39:11;100816.47;;;-1.02;100.00
54407;BME280;40313;50.308;30.374;2023-02-28T09:41:41;100815.53;;;-1.09;100.00
54407;BME280;40313;50.308;30.374;2023-02-28T09:44:13;100805.28;;;-1.12;100.00
54407;BME280;40313;50.308;30.374;2023-02-28T09:46:43;100804.16;;;-1.36;100.00
54407;BME280;40313;50.308;30.374;2023-02-28T09:49:11;100813.38;;;-1.49;100.00
54407;BME280;40313;50.308;30.374;2023-02-28T09:51:46;100806.38;;;-1.67;100.00
54407;BME280;40313;50.308;30.374;2023-02-28T09:54:17;100790.06;;;-1.75;100.00
54407;BME280;40313;50.308;30.374;2023-02-28T09:56:44;100792.44;;;-1.87;100.00
54407;BME280;40313;50.308;30.374;2023-02-28T09:59:13;100799.97;;;-2.00;100.00
54407;BME280;40313;50.308;30.374;2023-02-28T10:01:43;100785.50;;;-1.96;100.00
54407;BME280;40313;50.308;30.374;2023-02-28T10:04:15;100794.88;;;-1.97;100.00
54407;BME280;40313;50.308;30.374;2023-02-28T10:06:44;100787.88;;;-2.10;100.00
54407;BME280;40313;50.308;30.374;2023-02-28T10:09:15;100781.06;;;-2.11;100.00
54407;BME280;40313;50.308;30.374;2023-02-28T10:11:44;100769.84;;;-2.19;100.00
54407;BME280;40313;50.308;30.374;2023-02-28T10:14:13;100763.78;;;-2.26;100.00
54407;BME280;40313;50.308;30.374;2023-02-28T10:16:42;100786.03;;;-2.20;100.00
54407;BME280;40313;50.308;30.374;2023-02-28T10:19:14;100779.16;;;-2.24;100.00
54407;BME280;40313;50.308;30.374;2023-02-28T10:21:47;100771.47;;;-2.24;100.00
54407;BME280;40313;50.308;30.374;2023-02-28T10:24:23;100772.44;;;-2.18;100.00
54407;BME280;40313;50.308;30.374;2023-02-28T10:26:56;100768.25;;;-2.13;100.00
54407;BME280;40313;50.308;30.374;2023-02-28T10:29:26;100773.38;;;-2.13;100.00
54407;BME280;40313;50.308;30.374;2023-02-28T10:31:53;100765.72;;;-2.11;100.00
54407;BME280;40313;50.308;30.374;2023-02-28T10:34:20;100773.38;;;-2.11;100.00
54407;BME280;40313;50.308;30.374;2023-02-28T10:36:48;100765.72;;;-2.11;100.00
54407;BME280;40313;50.308;30.374;2023-02-28T10:39:38;100750.44;;;-2.05;100.00
54407;BME280;40313;50.308;30.374;2023-02-28T10:42:18;100767.63;;;-1.93;100.00
54407;BME280;40313;50.308;30.374;2023-02-28T10:44:45;100762.66;;;-1.84;100.00
54407;BME280;40313;50.308;30.374;2023-02-28T10:47:14;100760.06;;;-1.87;100.00
54407;BME280;40313;50.308;30.374;2023-02-28T10:49:47;100750.72;;;-1.83;100.00
54407;BME280;40313;50.308;30.374;2023-02-28T10:52:36;100752.47;;;-1.79;100.00
54407;BME280;40313;50.308;30.374;2023-02-28T10:55:18;100748.16;;;-1.85;100.00
54407;BME280;40313;50.308;30.374;2023-02-28T10:57:46;100749.91;;;-1.81;100.00
54407;BME280;40313;50.308;30.374;2023-02-28T11:00:16;100739.72;;;-1.78;100.00
54407;BME280;40313;50.308;30.374;2023-02-28T11:02:44;100743.22;;;-1.71;100.00
54407;BME280;40313;50.308;30.374;2023-02-28T11:05:27;100733.88;;;-1.66;100.00
54407;BME280;40313;50.308;30.374;2023-02-28T11:07:55;100727.94;;;-1.62;100.00
54407;BME280;40313;50.308;30.374;2023-02-28T11:10:26;100725.47;;;-1.55;100.00
54407;BME280;40313;50.308;30.374;2023-02-28T11:12:55;100728.91;;;-1.50;100.00
54407;BME280;40313;50.308;30.374;2023-02-28T11:15:24;100733.25;;;-1.45;100.00
54407;BME280;40313;50.308;30.374;2023-02-28T11:17:57;100725.53;;;-1.48;100.00
54407;BME280;40313;50.308;30.374;2023-02-28T11:20:26;100721.34;;;-1.41;100.00
54407;BME280;40313;50.308;30.374;2023-02-28T11:22:54;100718.03;;;-1.31;100.00
54407;BME280;40313;50.308;30.374;2023-02-28T11:25:25;100727.41;;;-1.33;100.00
54407;BME280;40313;50.308;30.374;2023-02-28T11:27:54;100716.31;;;-1.32;100.00
54407;BME280;40313;50.308;30.374;2023-02-28T11:30:27;100720.63;;;-1.28;100.00
54407;BME280;40313;50.308;30.374;2023-02-28T11:32:54;100715.56;;;-1.22;100.00
54407;BME280;40313;50.308;30.374;2023-02-28T11:35:24;100719.91;;;-1.14;100.00
54407;BME280;40313;50.308;30.374;2023-02-28T11:37:52;100716.59;;;-1.01;100.00
54407;BME280;40313;50.308;30.374;2023-02-28T11:40:28;100713.16;;;-1.03;100.00
54407;BME280;40313;50.308;30.374;2023-02-28T11:43:10;100701.22;;;-1.06;100.00
54407;BME280;40313;50.308;30.374;2023-02-28T11:45:50;100712.28;;;-1.07;100.00
54407;BME280;40313;50.308;30.374;2023-02-28T11:48:23;100714.81;;;-1.10;100.00
54407;BME280;40313;50.308;30.374;2023-02-28T11:51:02;100710.53;;;-1.12;100.00
54407;BME280;40313;50.308;30.374;2023-02-28T11:53:45;100704.59;;;-1.08;100.00
54407;BME280;40313;50.308;30.374;2023-02-28T11:56:23;100697.78;;;-1.05;100.00
54407;BME280;40313;50.308;30.374;2023-02-28T12:01:54;100697.94;;;-0.86;100.00
54407;BME280;40313;50.308;30.374;2023-02-28T12:04:37;100691.97;;;-0.82;100.00
54407;BME280;40313;50.308;30.374;2023-02-28T12:07:14;100682.63;;;-0.80;100.00
54407;BME280;40313;50.308;30.374;2023-02-28T12:09:50;100681.78;;;-0.76;100.00
54407;BME280;40313;50.308;30.374;2023-02-28T12:12:37;100687.78;;;-0.74;100.00
54407;BME280;40313;50.308;30.374;2023-02-28T12:15:38;100681.75;;;-0.77;100.00
54407;BME280;40313;50.308;30.374;2023-02-28T12:18:18;100668.94;;;-0.80;100.00
54407;BME280;40313;50.308;30.374;2023-02-28T12:20:53;100680.06;;;-0.78;100.00
54407;BME280;40313;50.308;30.374;2023-02-28T12:23:49;100671.56;;;-0.74;100.00
54407;BME280;40313;50.308;30.374;2023-02-28T12:26:27;100669.88;;;-0.69;100.00
54407;BME280;40313;50.308;30.374;2023-02-28T12:29:02;100668.19;;;-0.65;100.00
54407;BME280;40313;50.308;30.374;2023-02-28T12:31:34;100671.59;;;-0.68;100.00
54407;BME280;40313;50.308;30.374;2023-02-28T12:34:06;100669.84;;;-0.72;100.00
54407;BME280;40313;50.308;30.374;2023-02-28T12:36:36;100681.81;;;-0.74;100.00
54407;BME280;40313;50.308;30.374;2023-02-28T12:39:07;100670.75;;;-0.68;100.00
54407;BME280;40313;50.308;30.374;2023-02-28T12:41:40;100668.09;;;-0.76;100.00
54407;BME280;40313;50.308;30.374;2023-02-28T12:44:12;100665.53;;;-0.79;100.00
54407;BME280;40313;50.308;30.374;2023-02-28T12:46:44;100652.72;;;-0.79;100.00
54407;BME280;40313;50.308;30.374;2023-02-28T12:49:16;100656.13;;;-0.77;100.00
54407;BME280;40313;50.308;30.374;2023-02-28T12:51:44;100653.63;;;-0.76;100.00
54407;BME280;40313;50.308;30.374;2023-02-28T12:54:18;100644.22;;;-0.75;100.00